Terminal Aerodrome Forecast
Issued by NWS

Home | Current Version | Previous Version | Graphics & Text | Print | Product List | Glossary On
Versions: 1 2 3 4 5 6 7 8 9 10 11 12 13 14 15 16 17 18 19 20
000
FTUS42 KMHX 230403 AAA
TAFOAJ
TAF AMD
KOAJ 230403Z 2304/2324 VRB04KT P6SM BKN110
      TEMPO 2304/2306 1SM BR BKN010
     FM230900 22005KT P6SM BKN015
     FM231200 22011KT P6SM BKN060
     FM232300 20010KT P6SM SCT140
      AMD LTD TO CLD VIS AND WIND=

USA.gov is the U.S. government's official web portal to all federal, state and local government web resources and services.